Time;durP1;ratioP1;P1;durP2;ratioP2;P2;SDS_P1;SDS_P2;PMS_P1;PMS_P2;Temp;Humidity;BMP_temperature;BMP_pressure;BME280_temperature;BME280_humidity;BME280_pressure;Samples;Min_cycle;Max_cycle;Signal;HPM_P1;HPM_P2
2021/03/07 00:00:11;;;;;;;3.73;1.00;;;;;;;-2.65;65.95;100341.84;1753474;80;21323;-59
2021/03/07 00:02:39;;;;;;;2.90;1.20;;;;;;;-2.67;65.97;100346.20;1751513;80;20977;-59
2021/03/07 00:05:07;;;;;;;2.90;1.00;;;;;;;-2.69;66.09;100340.91;1778028;79;21805;-59
2021/03/07 00:07:34;;;;;;;5.73;1.10;;;;;;;-2.71;66.25;100335.15;1785631;79;21099;-59
2021/03/07 00:10:04;;;;;;;3.23;0.93;;;;;;;-2.71;66.30;100329.88;1751685;79;21512;-60
2021/03/07 00:12:32;;;;;;;5.50;1.20;;;;;;;-2.72;66.36;100327.67;1778309;79;21369;-59
2021/03/07 00:15:00;;;;;;;4.00;0.87;;;;;;;-2.72;66.53;100325.47;1786688;79;21124;-59
2021/03/07 00:17:27;;;;;;;2.43;0.93;;;;;;;-2.73;66.64;100322.41;1782546;78;21973;-59
2021/03/07 00:19:56;;;;;;;2.07;1.00;;;;;;;-2.74;66.68;100318.00;1782799;78;21192;-59
2021/03/07 00:22:23;;;;;;;3.60;1.27;;;;;;;-2.75;66.80;100313.59;1781811;78;22330;-59
2021/03/07 00:24:50;;;;;;;2.97;1.10;;;;;;;-2.76;66.89;100310.07;1779930;78;21656;-59
2021/03/07 00:27:18;;;;;;;4.77;1.50;;;;;;;-2.76;66.99;100306.55;1781756;78;21204;-59
2021/03/07 00:29:45;;;;;;;1.67;0.87;;;;;;;-2.78;67.16;100298.61;1754752;80;21215;-59
2021/03/07 00:32:12;;;;;;;2.77;0.80;;;;;;;-2.77;67.22;100298.19;1749719;81;21631;-59
2021/03/07 00:34:40;;;;;;;4.20;1.00;;;;;;;-2.79;67.29;100294.20;1781931;78;21179;-58
2021/03/07 00:37:08;;;;;;;2.77;0.90;;;;;;;-2.78;67.37;100288.08;1780039;78;21373;-59
2021/03/07 00:39:35;;;;;;;3.20;1.10;;;;;;;-2.77;67.45;100288.96;1755589;80;21182;-59
2021/03/07 00:42:04;;;;;;;6.70;0.93;;;;;;;-2.77;67.61;100283.27;1781475;78;21199;-59
2021/03/07 00:44:31;;;;;;;2.13;0.90;;;;;;;-2.77;67.63;100273.16;1779692;79;21171;-59
2021/03/07 00:46:58;;;;;;;4.90;0.80;;;;;;;-2.78;67.77;100271.37;1780221;79;21703;-59
2021/03/07 00:49:29;;;;;;;2.40;1.00;;;;;;;-2.79;67.80;100263.02;1781222;79;21235;-59
2021/03/07 00:51:56;;;;;;;3.23;1.20;;;;;;;-2.80;67.85;100262.12;1784773;79;21728;-59
2021/03/07 00:54:24;;;;;;;1.77;0.70;;;;;;;-2.79;67.89;100262.59;1780765;79;21175;-59
2021/03/07 00:56:53;;;;;;;2.87;0.60;;;;;;;-2.78;67.91;100257.77;1783209;79;21612;-59
2021/03/07 00:59:21;;;;;;;1.47;0.60;;;;;;;-2.79;67.92;100249.84;1783655;79;21098;-59
2021/03/07 01:01:49;;;;;;;2.13;0.77;;;;;;;-2.79;68.03;100245.89;1780720;79;22332;-59
2021/03/07 01:04:17;;;;;;;4.20;0.90;;;;;;;-2.80;68.00;100244.12;1724351;81;21179;-59
2021/03/07 01:06:46;;;;;;;2.60;1.27;;;;;;;-2.83;68.08;100244.10;1731032;82;21205;-59
2021/03/07 01:09:14;;;;;;;1.60;0.70;;;;;;;-2.82;68.09;100245.45;1724172;80;21236;-59
2021/03/07 01:11:43;;;;;;;1.50;0.70;;;;;;;-2.82;68.10;100234.91;1720785;80;21247;-58
2021/03/07 01:14:11;;;;;;;2.33;0.80;;;;;;;-2.80;68.09;100228.31;1722891;82;21417;-59
2021/03/07 01:16:38;;;;;;;1.70;0.70;;;;;;;-2.80;68.12;100225.67;1725237;81;21222;-58
2021/03/07 01:19:05;;;;;;;1.80;0.70;;;;;;;-2.78;68.12;100206.83;1724595;80;21395;-59
2021/03/07 01:21:33;;;;;;;3.30;0.70;;;;;;;-2.78;68.14;100210.78;1724785;81;21428;-58
2021/03/07 01:24:00;;;;;;;1.93;0.70;;;;;;;-2.78;68.14;100206.40;1726677;81;21227;-59
2021/03/07 01:26:27;;;;;;;2.60;1.30;;;;;;;-2.77;68.17;100200.70;1727733;80;21553;-58
2021/03/07 01:28:55;;;;;;;1.30;0.70;;;;;;;-2.79;68.17;100194.52;1721574;81;21263;-58
2021/03/07 01:31:22;;;;;;;2.53;0.73;;;;;;;-2.82;68.25;100189.23;1720414;81;21614;-59
2021/03/07 01:33:50;;;;;;;2.13;0.70;;;;;;;-2.83;68.36;100189.66;1731197;82;21156;-58
2021/03/07 01:36:17;;;;;;;1.70;0.70;;;;;;;-2.82;68.39;100189.23;1727843;82;21096;-58
2021/03/07 01:38:44;;;;;;;7.30;0.70;;;;;;;-2.84;68.46;100183.05;1721645;82;21219;-58
2021/03/07 01:41:11;;;;;;;1.87;0.70;;;;;;;-2.82;68.39;100182.22;1727070;79;21242;-59
2021/03/07 01:43:38;;;;;;;5.00;0.87;;;;;;;-2.82;68.44;100183.96;1782114;79;21148;-59
2021/03/07 01:46:06;;;;;;;2.47;0.87;;;;;;;-2.82;68.43;100178.70;1780886;79;21215;-59
2021/03/07 01:48:33;;;;;;;2.00;0.80;;;;;;;-2.80;68.41;100174.30;1780166;79;21164;-59
2021/03/07 01:51:01;;;;;;;1.93;0.70;;;;;;;-2.79;68.38;100169.05;1781846;79;21680;-59
2021/03/07 01:53:28;;;;;;;5.57;1.07;;;;;;;-2.76;68.35;100165.58;1779072;79;21282;-59
2021/03/07 01:55:55;;;;;;;1.70;0.87;;;;;;;-2.78;68.25;100162.92;1782740;79;21579;-59
2021/03/07 01:58:26;;;;;;;1.43;0.60;;;;;;;-2.78;68.23;100156.77;1783302;79;21116;-59
2021/03/07 02:00:54;;;;;;;1.70;0.80;;;;;;;-2.78;68.15;100156.77;1783525;79;21099;-59
2021/03/07 02:03:22;;;;;;;1.10;0.70;;;;;;;-2.75;68.06;100151.55;1786171;79;21231;-59
2021/03/07 02:05:50;;;;;;;2.80;0.77;;;;;;;-2.74;67.96;100141.03;1783837;79;21576;-59
2021/03/07 02:08:19;;;;;;;3.33;0.60;;;;;;;-2.73;67.83;100141.48;1780183;79;21187;-59
2021/03/07 02:10:52;;;;;;;3.63;0.90;;;;;;;-2.73;67.77;100134.02;1780853;79;21606;-59
2021/03/07 02:13:31;;;;;;;2.55;0.80;;;;;;;-2.74;67.72;100131.81;1783636;79;21093;-58
2021/03/07 02:16:05;;;;;;;1.77;0.70;;;;;;;-2.72;67.63;100135.75;1780860;79;21670;-59
2021/03/07 02:18:38;;;;;;;1.70;0.60;;;;;;;-2.70;67.53;100140.18;1771030;78;21183;-59
2021/03/07 02:21:16;;;;;;;1.60;0.70;;;;;;;-2.71;67.44;100139.72;1780748;79;21501;-59
2021/03/07 02:24:05;;;;;;;2.30;0.80;;;;;;;-2.70;67.38;100132.27;1779503;79;21538;-59
2021/03/07 02:26:35;;;;;;;2.63;0.80;;;;;;;-2.70;67.27;100131.39;1783892;79;21175;-59
2021/03/07 02:29:03;;;;;;;2.57;0.67;;;;;;;-2.73;67.20;100132.27;1782951;79;22271;-59
2021/03/07 02:31:30;;;;;;;2.70;0.80;;;;;;;-2.73;67.12;100121.72;1780697;79;21186;-58
2021/03/07 02:34:10;;;;;;;2.47;0.70;;;;;;;-2.71;67.05;100112.05;1783367;79;21465;-59
2021/03/07 02:36:42;;;;;;;3.27;0.70;;;;;;;-2.70;66.98;100115.14;1780140;79;21895;-59
2021/03/07 02:39:09;;;;;;;2.17;0.70;;;;;;;-2.68;66.96;100112.10;1747046;79;21127;-59
2021/03/07 02:41:36;;;;;;;4.13;0.80;;;;;;;-2.66;66.87;100106.85;1748292;81;21447;-59
2021/03/07 02:44:06;;;;;;;3.00;1.37;;;;;;;-2.65;66.84;100103.36;1737766;81;21139;-59
2021/03/07 02:46:33;;;;;;;1.67;0.73;;;;;;;-2.67;66.79;100087.52;1733757;81;21131;-59
2021/03/07 02:49:03;;;;;;;5.03;1.23;;;;;;;-2.67;66.76;100086.20;1732723;81;21154;-59
2021/03/07 02:51:32;;;;;;;1.43;0.90;;;;;;;-2.65;66.66;100082.70;1732833;81;21165;-59
2021/03/07 02:54:05;;;;;;;1.90;0.73;;;;;;;-2.65;66.60;100077.44;1710790;81;22661;-59
2021/03/07 02:56:34;;;;;;;2.90;0.80;;;;;;;-2.67;66.56;100076.98;1732470;81;21215;-59
2021/03/07 02:59:05;;;;;;;5.70;0.83;;;;;;;-2.67;66.51;100075.66;1729803;81;21157;-59
2021/03/07 03:01:33;;;;;;;3.97;0.97;;;;;;;-2.68;66.47;100069.05;1730435;81;21127;-58
2021/03/07 03:04:00;;;;;;;2.70;1.00;;;;;;;-2.70;66.38;100062.88;1735382;81;21123;-59
2021/03/07 03:06:28;;;;;;;2.93;0.90;;;;;;;-2.72;66.39;100053.64;1728254;81;21403;-59
2021/03/07 03:08:57;;;;;;;1.20;0.60;;;;;;;-2.70;66.28;100049.70;1722727;81;21163;-59
2021/03/07 03:11:27;;;;;;;2.67;0.77;;;;;;;-2.70;66.23;100051.02;1723283;81;21119;-59
2021/03/07 03:13:56;;;;;;;3.63;0.80;;;;;;;-2.70;66.17;100045.75;1705681;81;21104;-59
2021/03/07 03:16:25;;;;;;;3.70;0.90;;;;;;;-2.72;66.10;100043.09;1717593;81;21172;-58
2021/03/07 03:18:53;;;;;;;2.57;0.87;;;;;;;-2.69;66.02;100043.56;1722919;81;21191;-59
2021/03/07 03:21:20;;;;;;;3.73;0.90;;;;;;;-2.68;65.93;100045.34;1721105;81;21489;-59
2021/03/07 03:23:48;;;;;;;2.97;0.97;;;;;;;-2.67;65.86;100040.09;1719251;81;21212;-58
2021/03/07 03:26:18;;;;;;;3.83;1.13;;;;;;;-2.67;65.79;100034.82;1718755;81;21783;-59
2021/03/07 03:28:46;;;;;;;1.87;1.20;;;;;;;-2.67;65.73;100026.91;1718931;81;21200;-58
2021/03/07 03:31:13;;;;;;;1.87;0.70;;;;;;;-2.65;65.68;100020.78;1720236;81;21416;-58
2021/03/07 03:33:40;;;;;;;2.73;0.90;;;;;;;-2.63;65.58;100016.37;1712719;81;22339;-58
2021/03/07 03:36:09;;;;;;;3.00;1.00;;;;;;;-2.63;65.52;100015.95;1718860;81;21183;-58
2021/03/07 03:38:47;;;;;;;1.90;0.97;;;;;;;-2.64;65.51;100003.67;1717849;81;21176;-59
2021/03/07 03:41:15;;;;;;;2.17;1.00;;;;;;;-2.63;65.42;99989.59;1718969;81;21227;-57
2021/03/07 03:43:44;;;;;;;2.77;0.77;;;;;;;-2.63;65.35;99985.64;1744106;78;21202;-57
2021/03/07 03:46:11;;;;;;;3.10;0.70;;;;;;;-2.61;65.31;99984.34;1753484;79;21783;-59
2021/03/07 03:48:40;;;;;;;2.50;0.93;;;;;;;-2.62;65.25;99983.45;1753088;79;21554;-59
2021/03/07 03:51:09;;;;;;;1.90;0.70;;;;;;;-2.64;65.27;99971.16;1752229;79;21177;-57
2021/03/07 03:53:37;;;;;;;2.90;0.90;;;;;;;-2.65;65.25;99976.87;1751428;79;21478;-59
2021/03/07 03:56:05;;;;;;;1.67;1.00;;;;;;;-2.65;65.31;99974.23;1751566;79;21613;-58
2021/03/07 03:58:41;;;;;;;2.77;1.00;;;;;;;-2.64;65.28;99966.77;1748040;79;21470;-59
2021/03/07 04:01:12;;;;;;;2.37;0.80;;;;;;;-2.61;65.26;99958.88;1751285;79;21766;-57
2021/03/07 04:03:40;;;;;;;1.37;0.70;;;;;;;-2.58;65.19;99959.34;1755871;79;21180;-57
2021/03/07 04:06:07;;;;;;;2.67;1.00;;;;;;;-2.56;65.19;99950.59;1753687;79;22451;-58
2021/03/07 04:08:35;;;;;;;4.17;1.00;;;;;;;-2.56;65.16;99951.91;1748562;79;21197;-57
2021/03/07 04:11:02;;;;;;;3.80;0.90;;;;;;;-2.56;65.14;99943.11;1740616;80;22059;-57
2021/03/07 04:13:30;;;;;;;4.73;0.90;;;;;;;-2.56;65.17;99940.05;1725093;81;21179;-59
2021/03/07 04:15:57;;;;;;;2.87;0.90;;;;;;;-2.56;65.21;99926.87;1737190;80;21525;-58
2021/03/07 04:18:26;;;;;;;2.50;1.00;;;;;;;-2.56;65.19;99917.64;1743324;81;21175;-58
2021/03/07 04:20:54;;;;;;;3.67;1.07;;;;;;;-2.54;65.21;99917.19;1737652;81;22378;-58
2021/03/07 04:23:21;;;;;;;2.63;0.90;;;;;;;-2.52;65.21;99910.19;1740394;79;21977;-58
2021/03/07 04:25:48;;;;;;;4.63;1.00;;;;;;;-2.50;65.19;99907.13;1745030;79;21280;-57
2021/03/07 04:28:16;;;;;;;3.67;1.10;;;;;;;-2.48;65.16;99901.87;1742472;79;21704;-57
2021/03/07 04:30:43;;;;;;;2.77;1.07;;;;;;;-2.45;65.12;99892.65;1729360;81;21386;-57
2021/03/07 04:33:10;;;;;;;3.73;2.30;;;;;;;-2.45;65.11;99877.72;1757061;79;21360;-59
2021/03/07 04:35:40;;;;;;;4.87;1.53;;;;;;;-2.44;65.13;99878.16;1763550;79;21635;-58
2021/03/07 04:38:07;;;;;;;3.17;1.00;;;;;;;-2.43;65.15;99878.61;1767244;79;21122;-57
2021/03/07 04:40:36;;;;;;;3.93;1.23;;;;;;;-2.42;65.17;99872.91;1754729;79;21194;-58
2021/03/07 04:43:04;;;;;;;4.90;1.27;;;;;;;-2.43;65.20;99864.55;1768679;79;21211;-58
2021/03/07 04:45:31;;;;;;;2.43;1.10;;;;;;;-2.42;65.30;99868.95;1739490;79;21855;-57
2021/03/07 04:47:59;;;;;;;5.47;1.63;;;;;;;-2.42;65.37;99865.00;1779086;78;21187;-59
2021/03/07 04:50:27;;;;;;;4.13;1.20;;;;;;;-2.42;65.40;99854.02;1740001;79;21201;-57
2021/03/07 04:52:54;;;;;;;4.20;1.33;;;;;;;-2.40;65.45;99853.60;1774691;79;21182;-59
2021/03/07 04:55:21;;;;;;;3.73;1.67;;;;;;;-2.38;65.51;99861.48;1740033;79;21219;-58
2021/03/07 04:57:48;;;;;;;7.20;1.60;;;;;;;-2.35;65.55;99854.49;1776972;79;23433;-57
2021/03/07 05:00:16;;;;;;;3.00;1.30;;;;;;;-2.33;65.53;99845.28;1750598;80;21206;-57
2021/03/07 05:02:44;;;;;;;7.50;1.90;;;;;;;-2.30;65.55;99849.26;1782826;78;21076;-59
2021/03/07 05:05:14;;;;;;;6.37;1.27;;;;;;;-2.31;65.60;99841.78;1768687;80;21537;-58
2021/03/07 05:07:41;;;;;;;9.13;2.33;;;;;;;-2.27;65.58;99841.78;1782318;78;21115;-60
2021/03/07 05:10:09;;;;;;;3.50;1.30;;;;;;;-2.27;65.60;99840.02;1747794;80;21390;-59
2021/03/07 05:12:37;;;;;;;4.90;1.50;;;;;;;-2.25;65.64;99836.97;1776562;79;21555;-59
2021/03/07 05:15:06;;;;;;;2.57;1.47;;;;;;;-2.21;65.61;99840.04;1745631;80;21258;-58
2021/03/07 05:17:34;;;;;;;4.00;1.40;;;;;;;-2.17;65.62;99837.88;1749910;80;22637;-58
2021/03/07 05:20:04;;;;;;;4.70;1.50;;;;;;;-2.14;65.57;99831.74;1775989;79;21851;-59
2021/03/07 05:22:32;;;;;;;5.80;2.43;;;;;;;-2.11;65.50;99833.05;1751153;79;21238;-60
2021/03/07 05:25:00;;;;;;;5.43;1.87;;;;;;;-2.08;65.56;99833.96;1775470;79;21215;-59
2021/03/07 05:27:28;;;;;;;4.33;2.07;;;;;;;-2.04;65.47;99826.48;1767221;80;21190;-58
2021/03/07 05:29:55;;;;;;;4.07;2.20;;;;;;;-2.02;65.36;99823.42;1782279;78;21990;-59
2021/03/07 05:32:22;;;;;;;4.17;1.80;;;;;;;-1.97;65.39;99816.86;1766630;78;21262;-57
2021/03/07 05:34:49;;;;;;;5.37;1.80;;;;;;;-1.95;65.32;99818.59;1778950;78;22590;-57
2021/03/07 05:37:17;;;;;;;5.03;1.93;;;;;;;-1.90;65.28;99815.99;1747227;79;21263;-57
2021/03/07 05:39:44;;;;;;;6.93;2.30;;;;;;;-1.83;65.23;99819.52;1764355;80;21559;-58
2021/03/07 05:42:11;;;;;;;5.37;2.50;;;;;;;-1.76;65.07;99822.17;1779581;78;21215;-58
2021/03/07 05:44:39;;;;;;;5.97;2.53;;;;;;;-1.69;64.99;99829.22;1738513;81;21822;-58
2021/03/07 05:47:06;;;;;;;5.23;2.50;;;;;;;-1.63;64.84;99822.66;1753124;81;23575;-59
2021/03/07 05:49:34;;;;;;;5.63;2.40;;;;;;;-1.58;64.71;99816.93;1787704;78;21175;-58
2021/03/07 05:52:02;;;;;;;7.60;1.80;;;;;;;-1.53;64.62;99819.56;1784801;78;21112;-59
2021/03/07 05:54:29;;;;;;;4.97;1.83;;;;;;;-1.46;64.37;99813.44;1750609;80;21212;-58
2021/03/07 05:56:57;;;;;;;4.97;2.30;;;;;;;-1.41;64.26;99806.39;1777317;79;21175;-59
2021/03/07 05:59:24;;;;;;;6.23;2.57;;;;;;;-1.34;64.18;99799.34;1754525;79;21433;-58
2021/03/07 06:01:51;;;;;;;7.30;2.80;;;;;;;-1.27;64.05;99795.81;1782791;78;21258;-57
2021/03/07 06:04:19;;;;;;;6.07;2.17;;;;;;;-1.20;63.85;99791.00;1781722;78;21180;-58
2021/03/07 06:06:46;;;;;;;4.90;2.00;;;;;;;-1.15;63.64;99784.82;1747058;79;21223;-59
2021/03/07 06:09:22;;;;;;;7.47;2.67;;;;;;;-1.08;63.42;99784.80;1747526;79;21107;-58
2021/03/07 06:11:51;;;;;;;9.57;2.87;;;;;;;-1.06;63.17;99775.13;1780288;79;22262;-57
2021/03/07 06:14:31;;;;;;;8.27;3.27;;;;;;;-1.06;63.21;99773.80;1751921;79;21220;-58
2021/03/07 06:17:12;;;;;;;5.90;2.43;;;;;;;-1.04;63.02;99774.25;1788250;78;21187;-59
2021/03/07 06:20:01;;;;;;;8.43;3.40;;;;;;;-1.02;63.04;99760.58;1748892;80;21565;-59
2021/03/07 06:22:30;;;;;;;5.93;2.83;;;;;;;-0.97;62.95;99757.94;1776182;79;21203;-63
2021/03/07 06:24:58;;;;;;;7.00;3.13;;;;;;;-0.93;62.87;99751.75;1754365;80;21464;-61
2021/03/07 06:27:25;;;;;;;5.30;2.90;;;;;;;-0.87;62.81;99752.64;1750563;80;21463;-61
2021/03/07 06:30:21;;;;;;;8.57;3.00;;;;;;;-0.81;62.82;99753.05;1724424;79;21174;-62
2021/03/07 06:32:54;;;;;;;6.40;2.70;;;;;;;-0.75;62.72;99751.70;1783000;78;21442;-61
2021/03/07 06:35:31;;;;;;;5.73;3.37;;;;;;;-0.66;62.50;99756.09;1759227;79;21256;-63
2021/03/07 06:38:04;;;;;;;6.70;4.03;;;;;;;-0.60;62.37;99754.33;1786819;78;22674;-62
2021/03/07 06:40:37;;;;;;;6.40;2.87;;;;;;;-0.54;62.24;99750.77;1768209;79;21237;-62
2021/03/07 06:43:26;;;;;;;6.72;3.42;;;;;;;-0.49;62.18;99751.18;1815319;78;29762;-62
2021/03/07 06:45:55;;;;;;;9.90;3.73;;;;;;;-0.43;61.84;99751.62;1790562;79;21086;-62
2021/03/07 06:48:35;;;;;;;6.63;3.50;;;;;;;-0.42;61.63;99752.91;1817932;78;21198;-62
2021/03/07 06:51:03;;;;;;;4.33;2.20;;;;;;;-0.41;61.74;99744.53;1781206;79;22769;-61
2021/03/07 06:53:32;;;;;;;5.30;3.00;;;;;;;-0.39;61.63;99743.65;1811010;76;21409;-62
2021/03/07 06:56:00;;;;;;;7.53;3.57;;;;;;;-0.37;61.62;99730.87;1811384;76;21020;-61
2021/03/07 06:58:27;;;;;;;8.47;3.47;;;;;;;-0.35;61.55;99729.98;1811954;76;21208;-60
2021/03/07 07:00:55;;;;;;;9.70;4.33;;;;;;;-0.31;61.59;99737.00;1810918;76;21193;-61
2021/03/07 07:03:24;;;;;;;9.47;4.10;;;;;;;-0.25;61.61;99720.20;1808037;76;21272;-60
2021/03/07 07:05:53;;;;;;;9.87;3.47;;;;;;;-0.14;61.66;99718.39;1806548;76;21229;-61
2021/03/07 07:08:44;;;;;;;7.93;3.50;;;;;;;-0.01;61.41;99715.68;1809926;76;21166;-61
2021/03/07 07:11:12;;;;;;;5.63;2.83;;;;;;;0.05;61.23;99709.45;1805109;76;21165;-60
2021/03/07 07:13:46;;;;;;;10.00;3.67;;;;;;;0.10;60.97;99706.77;1807268;76;21106;-60
2021/03/07 07:16:15;;;;;;;10.73;3.77;;;;;;;0.15;60.93;99699.69;1804914;76;21451;-60
2021/03/07 07:18:44;;;;;;;9.10;3.20;;;;;;;0.23;60.83;99701.39;1809785;76;21189;-61
2021/03/07 07:21:15;;;;;;;7.97;3.33;;;;;;;0.28;60.50;99688.98;1794755;78;21225;-59
2021/03/07 07:23:47;;;;;;;6.23;3.33;;;;;;;0.34;60.57;99696.87;1807752;76;21150;-60
2021/03/07 07:26:15;;;;;;;7.53;3.53;;;;;;;0.39;60.33;99678.31;1807528;76;21842;-60
2021/03/07 07:28:44;;;;;;;6.17;3.00;;;;;;;0.45;60.08;99673.40;1806722;76;21204;-61
2021/03/07 07:31:20;;;;;;;8.67;4.03;;;;;;;0.49;60.08;99671.17;1807975;76;21502;-61
2021/03/07 07:33:56;;;;;;;6.83;3.77;;;;;;;0.56;59.91;99667.56;1784957;76;21569;-61
2021/03/07 07:36:32;;;;;;;5.80;2.77;;;;;;;0.62;59.58;99662.20;1803624;76;21252;-61
2021/03/07 07:38:59;;;;;;;6.93;2.53;;;;;;;0.68;59.50;99658.19;1808536;76;21157;-62
2021/03/07 07:41:36;;;;;;;9.70;2.80;;;;;;;0.70;59.32;99658.58;1810089;76;21251;-62
2021/03/07 07:44:06;;;;;;;5.13;3.00;;;;;;;0.74;59.18;99658.12;1810945;76;21579;-63
2021/03/07 07:47:00;;;;;;;7.13;3.43;;;;;;;0.78;59.10;99651.00;1804542;76;21178;-64
2021/03/07 07:49:36;;;;;;;8.37;2.93;;;;;;;0.82;58.96;99639.05;1810630;76;21164;-63
2021/03/07 07:52:33;;;;;;;5.60;2.60;;;;;;;0.89;59.00;99636.75;1807691;76;21615;-65
2021/03/07 07:55:01;;;;;;;6.20;2.70;;;;;;;0.96;58.73;99639.75;1808502;76;21516;-63
2021/03/07 07:57:38;;;;;;;5.13;1.67;;;;;;;1.04;58.31;99625.09;1807650;76;21551;-64
2021/03/07 08:00:21;;;;;;;5.80;2.17;;;;;;;1.09;58.11;99629.45;1807089;76;21188;-63
2021/03/07 08:02:56;;;;;;;8.23;2.17;;;;;;;1.14;57.99;99622.31;1809352;76;21173;-64
2021/03/07 08:05:30;;;;;;;5.70;2.77;;;;;;;1.20;57.79;99615.16;1809833;76;21101;-64
2021/03/07 08:08:07;;;;;;;6.20;2.47;;;;;;;1.24;57.55;99613.80;1808224;76;22817;-63
2021/03/07 08:10:49;;;;;;;4.87;2.00;;;;;;;1.24;57.27;99615.57;1810968;76;21411;-64
2021/03/07 08:13:31;;;;;;;7.17;2.43;;;;;;;1.23;57.30;99593.48;1809925;76;21130;-65
2021/03/07 08:16:01;;;;;;;5.40;1.90;;;;;;;1.26;56.99;99592.57;1805491;76;21245;-61
2021/03/07 08:20:44;;;;;;;6.60;1.83;;;;;;;1.34;57.06;99586.72;1750674;79;26875;-64
2021/03/07 08:23:18;;;;;;;4.77;1.80;;;;;;;1.30;57.07;99579.68;1726757;80;21191;-65
2021/03/07 08:25:54;;;;;;;5.33;2.13;;;;;;;1.32;56.63;99584.08;1676347;83;21230;-65
2021/03/07 08:28:31;;;;;;;3.70;2.07;;;;;;;1.28;56.49;99574.39;1694780;82;21219;-64
2021/03/07 08:31:08;;;;;;;7.37;2.37;;;;;;;1.26;56.68;99564.73;1688384;82;20993;-63
2021/03/07 08:33:37;;;;;;;4.90;2.27;;;;;;;1.24;56.71;99562.09;1689156;82;21107;-63
2021/03/07 08:36:24;;;;;;;5.50;1.80;;;;;;;1.20;56.60;99553.73;1675952;83;21631;-66
2021/03/07 08:39:08;;;;;;;3.67;1.73;;;;;;;1.17;56.76;99548.50;1680997;83;22856;-65
2021/03/07 08:41:45;;;;;;;4.45;1.40;;;;;;;1.17;56.92;99547.62;1693204;82;21371;-66
2021/03/07 08:44:14;;;;;;;4.93;1.67;;;;;;;1.18;57.14;99566.16;1670579;83;21029;-64
2021/03/07 08:46:47;;;;;;;3.67;1.43;;;;;;;1.18;57.13;99549.38;1646916;84;21165;-64
2021/03/07 08:49:17;;;;;;;5.50;2.30;;;;;;;1.19;57.30;99564.39;1669866;83;21123;-65
2021/03/07 08:51:50;;;;;;;3.57;1.67;;;;;;;1.18;57.22;99548.94;1677371;83;21403;-65
2021/03/07 08:54:22;;;;;;;3.57;1.93;;;;;;;1.19;57.30;99547.16;1676733;83;21162;-66
2021/03/07 08:56:50;;;;;;;5.10;2.00;;;;;;;1.20;57.30;99548.88;1670063;83;21166;-64
2021/03/07 08:59:17;;;;;;;4.77;1.80;;;;;;;1.19;57.36;99548.48;1668680;83;21332;-62
2021/03/07 09:01:49;;;;;;;6.23;2.03;;;;;;;1.16;57.55;99548.07;1704614;82;21120;-62
2021/03/07 09:04:17;;;;;;;3.97;2.23;;;;;;;1.20;57.77;99551.09;1703401;82;21213;-65
2021/03/07 09:06:45;;;;;;;3.30;1.73;;;;;;;1.23;57.73;99541.78;1703549;82;21577;-64
2021/03/07 09:09:20;;;;;;;4.70;1.60;;;;;;;1.26;57.81;99538.22;1707115;82;21155;-62
2021/03/07 09:11:54;;;;;;;3.50;2.07;;;;;;;1.29;57.95;99535.50;1707036;82;21323;-64
2021/03/07 09:14:38;;;;;;;4.23;2.20;;;;;;;1.30;57.94;99537.26;1706989;82;21128;-65
2021/03/07 09:17:09;;;;;;;4.17;1.90;;;;;;;1.31;58.13;99534.59;1705738;82;21153;-64
2021/03/07 09:19:40;;;;;;;5.50;2.10;;;;;;;1.33;57.99;99539.88;1697431;82;21164;-66
2021/03/07 09:22:24;;;;;;;5.97;1.80;;;;;;;1.36;58.20;99537.19;1690661;83;21136;-65
2021/03/07 09:25:00;;;;;;;4.37;1.60;;;;;;;1.44;58.20;99537.95;1693309;82;21155;-67
2021/03/07 09:27:30;;;;;;;4.87;2.12;;;;;;;1.49;58.00;99529.47;1696778;82;21136;-62
2021/03/07 09:30:14;;;;;;;1.97;1.27;;;;;;;1.49;57.89;99518.41;1694101;82;21270;-63
2021/03/07 09:32:48;;;;;;;3.50;1.67;;;;;;;1.48;57.81;99511.34;1695388;82;21215;-65
2021/03/07 09:35:27;;;;;;;;;;;;;;;1.47;57.81;99511.36;1697701;82;21745;-62
2021/03/07 09:37:58;;;;;;;3.90;1.70;;;;;;;1.47;58.13;99512.69;1695638;82;20722;-62
2021/03/07 09:40:28;;;;;;;3.50;1.90;;;;;;;1.49;58.27;99514.88;1688910;82;21410;-64
2021/03/07 09:42:59;;;;;;;4.37;1.87;;;;;;;1.51;58.18;99513.08;1695682;82;21223;-65
2021/03/07 09:45:26;;;;;;;3.23;1.60;;;;;;;1.51;58.14;99513.95;1696930;82;21648;-60
2021/03/07 09:47:55;;;;;;;3.27;1.30;;;;;;;1.51;57.87;99513.95;1691020;82;21689;-64
2021/03/07 09:50:23;;;;;;;3.97;1.50;;;;;;;1.50;57.96;99516.19;1693776;82;21707;-65
2021/03/07 09:52:51;;;;;;;3.93;1.20;;;;;;;1.49;58.16;99501.16;1691750;82;21195;-61
2021/03/07 09:55:32;;;;;;;4.23;1.57;;;;;;;1.50;58.06;99507.34;1691812;82;21822;-64
2021/03/07 09:58:08;;;;;;;3.03;1.63;;;;;;;1.48;58.07;99506.03;1696392;82;21033;-63
2021/03/07 10:00:38;;;;;;;5.00;2.37;;;;;;;1.45;58.04;99506.08;1695777;82;21497;-64
2021/03/07 10:03:25;;;;;;;3.53;1.40;;;;;;;1.46;58.24;99509.16;1695118;82;22553;-62
2021/03/07 10:06:12;;;;;;;4.03;1.50;;;;;;;1.49;58.21;99496.31;1690313;82;21450;-63
2021/03/07 10:08:40;;;;;;;3.00;1.30;;;;;;;1.49;58.28;99506.91;1689139;82;21858;-64
2021/03/07 10:11:14;;;;;;;3.40;1.10;;;;;;;1.51;58.42;99498.49;1691976;82;21223;-63
2021/03/07 10:13:42;;;;;;;2.27;1.10;;;;;;;1.53;58.38;99499.35;1694827;82;21622;-65
2021/03/07 10:16:09;;;;;;;5.27;1.30;;;;;;;1.50;58.29;99498.94;1693175;82;21251;-64
2021/03/07 10:18:39;;;;;;;2.67;1.23;;;;;;;1.51;58.36;99486.55;1692849;82;21274;-63
2021/03/07 10:21:07;;;;;;;2.07;1.20;;;;;;;1.50;58.38;99496.29;1707392;82;21937;-61
2021/03/07 10:23:34;;;;;;;2.23;1.10;;;;;;;1.52;58.46;99493.62;1708615;82;21313;-60
2021/03/07 10:26:01;;;;;;;2.97;1.37;;;;;;;1.52;58.40;99490.97;1706730;82;21270;-64
2021/03/07 10:28:33;;;;;;;2.40;1.50;;;;;;;1.53;58.47;99486.09;1640163;82;21858;-61
2021/03/07 10:31:10;;;;;;;5.57;1.67;;;;;;;1.57;58.52;99481.59;1707772;82;21240;-64
2021/03/07 10:33:38;;;;;;;5.43;1.53;;;;;;;1.61;58.26;99481.98;1706528;82;23249;-62
2021/03/07 10:36:19;;;;;;;3.17;1.53;;;;;;;1.59;58.39;99478.47;1705029;82;22013;-63
2021/03/07 10:38:51;;;;;;;2.77;1.10;;;;;;;1.60;58.48;99474.47;1708161;82;21033;-60
2021/03/07 10:41:33;;;;;;;2.30;1.00;;;;;;;1.64;58.28;99473.95;1706065;82;21278;-64
2021/03/07 10:44:07;;;;;;;1.80;1.20;;;;;;;1.62;58.31;99467.78;1705208;82;21179;-61
2021/03/07 10:46:37;;;;;;;3.27;1.30;;;;;;;1.60;58.40;99460.33;1707905;82;22366;-63
2021/03/07 10:49:09;;;;;;;3.40;1.40;;;;;;;1.58;58.38;99455.49;1704976;82;21255;-60
2021/03/07 10:51:39;;;;;;;3.30;1.73;;;;;;;1.58;58.50;99456.82;1706617;82;21223;-64
2021/03/07 10:54:07;;;;;;;3.10;1.73;;;;;;;1.56;58.36;99457.28;1709242;82;21704;-62
2021/03/07 10:56:40;;;;;;;3.13;1.30;;;;;;;1.53;58.46;99454.26;1704410;82;21211;-64
2021/03/07 10:59:05;;;;;;;3.97;1.87;;;;;;;1.55;58.62;99443.59;1705992;82;22511;-64
2021/03/07 11:01:33;;;;;;;2.33;1.30;;;;;;;1.57;58.58;99442.67;1707231;82;21230;-63
2021/03/07 11:04:00;;;;;;;4.37;1.03;;;;;;;1.57;58.54;99429.41;1710023;82;21716;-62
2021/03/07 11:06:27;;;;;;;4.73;1.80;;;;;;;1.58;58.67;99431.62;1708046;82;21488;-61
2021/03/07 11:08:54;;;;;;;5.20;1.30;;;;;;;1.59;58.65;99428.94;1706135;82;21226;-63
2021/03/07 11:11:22;;;;;;;3.80;1.67;;;;;;;1.60;58.38;99425.84;1704960;82;21406;-62
2021/03/07 11:13:49;;;;;;;3.10;1.47;;;;;;;1.57;58.55;99426.76;1707230;82;21515;-65
2021/03/07 11:16:16;;;;;;;2.20;1.40;;;;;;;1.59;58.62;99418.78;1706301;82;21194;-61
2021/03/07 11:18:44;;;;;;;2.87;1.50;;;;;;;1.58;58.57;99419.23;1706213;82;21840;-64
2021/03/07 11:21:11;;;;;;;3.33;1.80;;;;;;;1.59;58.79;99419.66;1695609;82;21199;-61
2021/03/07 11:23:38;;;;;;;2.10;1.23;;;;;;;1.61;58.78;99427.59;1693174;82;21372;-64
2021/03/07 11:26:05;;;;;;;5.80;1.10;;;;;;;1.60;58.82;99420.53;1691351;82;21532;-63
2021/03/07 11:28:35;;;;;;;2.57;1.20;;;;;;;1.60;58.98;99419.20;1689940;82;21231;-62
2021/03/07 11:31:03;;;;;;;1.83;1.07;;;;;;;1.60;58.92;99406.83;1693029;82;21811;-63
2021/03/07 11:33:32;;;;;;;4.07;1.87;;;;;;;1.61;58.99;99399.73;1696247;82;21219;-62
2021/03/07 11:35:59;;;;;;;2.90;1.70;;;;;;;1.61;58.84;99393.98;1692420;82;22369;-64
2021/03/07 11:38:26;;;;;;;3.13;1.40;;;;;;;1.62;58.82;99407.64;1693436;82;21250;-63
2021/03/07 11:40:53;;;;;;;2.07;1.20;;;;;;;1.61;58.99;99399.30;1693591;82;21187;-61
2021/03/07 11:43:21;;;;;;;1.93;1.10;;;;;;;1.63;59.13;99391.28;1691971;82;21236;-64
2021/03/07 11:45:48;;;;;;;5.70;1.30;;;;;;;1.65;59.07;99385.05;1690973;82;21182;-61
2021/03/07 11:48:15;;;;;;;2.13;0.90;;;;;;;1.66;59.08;99381.50;1691989;82;21563;-61
2021/03/07 11:50:44;;;;;;;3.87;1.00;;;;;;;1.67;59.03;99374.42;1698493;82;21112;-63